sensor_id;sensor_type;location;lat;lon;timestamp;P1;durP1;ratioP1;P2;durP2;ratioP2
76292;SDS011;67256;51.154;4.164;2023-03-09T00:00:57;29.90;;;19.15;;
76292;SDS011;67256;51.154;4.164;2023-03-09T00:03:23;31.83;;;19.40;;
76292;SDS011;67256;51.154;4.164;2023-03-09T00:05:52;30.55;;;19.15;;
76292;SDS011;67256;51.154;4.164;2023-03-09T00:08:22;31.23;;;20.23;;
76292;SDS011;67256;51.154;4.164;2023-03-09T00:10:49;32.85;;;20.48;;
76292;SDS011;67256;51.154;4.164;2023-03-09T00:13:17;32.67;;;21.60;;
76292;SDS011;67256;51.154;4.164;2023-03-09T00:15:43;35.58;;;21.73;;
76292;SDS011;67256;51.154;4.164;2023-03-09T00:18:15;36.38;;;21.15;;
76292;SDS011;67256;51.154;4.164;2023-03-09T00:20:44;40.67;;;23.70;;
76292;SDS011;67256;51.154;4.164;2023-03-09T00:23:11;41.22;;;23.65;;
76292;SDS011;67256;51.154;4.164;2023-03-09T00:25:37;43.63;;;25.38;;
76292;SDS011;67256;51.154;4.164;2023-03-09T00:28:03;37.45;;;23.77;;
76292;SDS011;67256;51.154;4.164;2023-03-09T00:30:28;41.20;;;25.17;;
76292;SDS011;67256;51.154;4.164;2023-03-09T00:32:54;42.28;;;25.80;;
76292;SDS011;67256;51.154;4.164;2023-03-09T00:35:20;36.92;;;23.73;;
76292;SDS011;67256;51.154;4.164;2023-03-09T00:37:46;37.22;;;24.38;;
76292;SDS011;67256;51.154;4.164;2023-03-09T00:40:12;39.42;;;25.15;;
76292;SDS011;67256;51.154;4.164;2023-03-09T00:42:42;38.63;;;23.35;;
76292;SDS011;67256;51.154;4.164;2023-03-09T00:45:09;36.47;;;23.30;;
76292;SDS011;67256;51.154;4.164;2023-03-09T00:47:35;35.88;;;22.73;;
76292;SDS011;67256;51.154;4.164;2023-03-09T00:50:01;36.50;;;23.33;;
76292;SDS011;67256;51.154;4.164;2023-03-09T00:52:29;44.47;;;27.17;;
76292;SDS011;67256;51.154;4.164;2023-03-09T00:54:55;39.03;;;25.92;;
76292;SDS011;67256;51.154;4.164;2023-03-09T00:57:22;35.53;;;23.70;;
76292;SDS011;67256;51.154;4.164;2023-03-09T00:59:48;39.70;;;24.88;;
76292;SDS011;67256;51.154;4.164;2023-03-09T01:02:16;38.78;;;25.38;;
76292;SDS011;67256;51.154;4.164;2023-03-09T01:04:43;38.33;;;24.83;;
76292;SDS011;67256;51.154;4.164;2023-03-09T01:07:09;37.03;;;24.80;;
76292;SDS011;67256;51.154;4.164;2023-03-09T01:09:36;42.92;;;26.02;;
76292;SDS011;67256;51.154;4.164;2023-03-09T01:12:02;39.65;;;24.55;;
76292;SDS011;67256;51.154;4.164;2023-03-09T01:14:29;40.40;;;25.90;;
76292;SDS011;67256;51.154;4.164;2023-03-09T01:16:54;38.20;;;25.83;;
76292;SDS011;67256;51.154;4.164;2023-03-09T01:19:20;42.67;;;28.00;;
76292;SDS011;67256;51.154;4.164;2023-03-09T01:21:46;37.28;;;24.27;;
76292;SDS011;67256;51.154;4.164;2023-03-09T01:24:11;39.78;;;25.67;;
76292;SDS011;67256;51.154;4.164;2023-03-09T01:26:37;37.33;;;25.65;;
76292;SDS011;67256;51.154;4.164;2023-03-09T01:29:03;36.08;;;24.08;;
76292;SDS011;67256;51.154;4.164;2023-03-09T01:31:28;34.85;;;23.02;;
76292;SDS011;67256;51.154;4.164;2023-03-09T01:33:54;36.33;;;23.00;;
76292;SDS011;67256;51.154;4.164;2023-03-09T01:36:20;36.50;;;22.75;;
76292;SDS011;67256;51.154;4.164;2023-03-09T01:38:46;37.15;;;23.77;;
76292;SDS011;67256;51.154;4.164;2023-03-09T01:41:13;38.40;;;24.17;;
76292;SDS011;67256;51.154;4.164;2023-03-09T01:43:40;37.78;;;25.63;;
76292;SDS011;67256;51.154;4.164;2023-03-09T01:54:05;37.60;;;22.73;;
76292;SDS011;67256;51.154;4.164;2023-03-09T01:56:33;37.65;;;23.10;;
76292;SDS011;67256;51.154;4.164;2023-03-09T01:59:00;34.22;;;22.40;;
76292;SDS011;67256;51.154;4.164;2023-03-09T02:01:29;32.80;;;21.35;;
76292;SDS011;67256;51.154;4.164;2023-03-09T02:03:57;34.00;;;22.60;;
76292;SDS011;67256;51.154;4.164;2023-03-09T02:06:27;34.03;;;21.25;;
76292;SDS011;67256;51.154;4.164;2023-03-09T02:11:29;38.17;;;23.02;;
76292;SDS011;67256;51.154;4.164;2023-03-09T02:13:55;34.40;;;22.30;;
76292;SDS011;67256;51.154;4.164;2023-03-09T02:16:21;33.75;;;21.77;;
76292;SDS011;67256;51.154;4.164;2023-03-09T02:18:47;36.40;;;22.13;;
76292;SDS011;67256;51.154;4.164;2023-03-09T02:26:45;34.88;;;20.92;;
76292;SDS011;67256;51.154;4.164;2023-03-09T02:29:16;35.60;;;22.55;;
76292;SDS011;67256;51.154;4.164;2023-03-09T02:31:42;33.42;;;20.85;;
76292;SDS011;67256;51.154;4.164;2023-03-09T02:34:08;32.22;;;21.45;;
76292;SDS011;67256;51.154;4.164;2023-03-09T02:36:34;35.97;;;23.55;;
76292;SDS011;67256;51.154;4.164;2023-03-09T02:39:06;36.53;;;23.23;;
76292;SDS011;67256;51.154;4.164;2023-03-09T02:41:38;36.25;;;23.70;;
76292;SDS011;67256;51.154;4.164;2023-03-09T02:44:04;36.90;;;21.38;;
76292;SDS011;67256;51.154;4.164;2023-03-09T02:46:31;40.50;;;24.25;;
76292;SDS011;67256;51.154;4.164;2023-03-09T02:48:56;42.80;;;24.25;;
76292;SDS011;67256;51.154;4.164;2023-03-09T02:51:22;42.80;;;25.25;;
76292;SDS011;67256;51.154;4.164;2023-03-09T02:53:48;39.03;;;24.77;;
76292;SDS011;67256;51.154;4.164;2023-03-09T02:56:14;39.10;;;23.75;;
76292;SDS011;67256;51.154;4.164;2023-03-09T02:58:40;39.72;;;24.73;;
76292;SDS011;67256;51.154;4.164;2023-03-09T03:01:05;38.10;;;24.02;;
76292;SDS011;67256;51.154;4.164;2023-03-09T03:03:31;42.05;;;25.08;;
76292;SDS011;67256;51.154;4.164;2023-03-09T03:05:57;40.50;;;24.60;;
76292;SDS011;67256;51.154;4.164;2023-03-09T03:08:23;37.55;;;23.23;;
76292;SDS011;67256;51.154;4.164;2023-03-09T03:10:48;34.38;;;22.48;;
76292;SDS011;67256;51.154;4.164;2023-03-09T03:13:14;37.05;;;22.63;;
76292;SDS011;67256;51.154;4.164;2023-03-09T03:15:40;38.53;;;24.17;;
76292;SDS011;67256;51.154;4.164;2023-03-09T03:18:05;38.13;;;22.88;;
76292;SDS011;67256;51.154;4.164;2023-03-09T03:20:31;36.22;;;23.08;;
76292;SDS011;67256;51.154;4.164;2023-03-09T03:22:57;41.08;;;25.45;;
76292;SDS011;67256;51.154;4.164;2023-03-09T03:25:23;39.33;;;23.48;;
76292;SDS011;67256;51.154;4.164;2023-03-09T03:27:49;38.47;;;23.67;;
76292;SDS011;67256;51.154;4.164;2023-03-09T03:30:14;37.58;;;24.27;;
76292;SDS011;67256;51.154;4.164;2023-03-09T03:32:40;37.50;;;23.95;;
76292;SDS011;67256;51.154;4.164;2023-03-09T03:35:06;40.58;;;23.20;;
76292;SDS011;67256;51.154;4.164;2023-03-09T03:37:33;34.30;;;22.58;;
76292;SDS011;67256;51.154;4.164;2023-03-09T03:39:59;37.83;;;24.45;;
76292;SDS011;67256;51.154;4.164;2023-03-09T03:42:24;41.55;;;25.90;;
76292;SDS011;67256;51.154;4.164;2023-03-09T03:44:50;40.08;;;24.35;;
76292;SDS011;67256;51.154;4.164;2023-03-09T03:47:16;39.15;;;24.75;;
76292;SDS011;67256;51.154;4.164;2023-03-09T03:49:41;34.33;;;22.48;;
76292;SDS011;67256;51.154;4.164;2023-03-09T03:52:07;32.85;;;21.90;;
76292;SDS011;67256;51.154;4.164;2023-03-09T03:54:34;32.63;;;21.65;;
76292;SDS011;67256;51.154;4.164;2023-03-09T03:57:00;33.92;;;21.55;;
76292;SDS011;67256;51.154;4.164;2023-03-09T03:59:26;35.75;;;21.33;;
76292;SDS011;67256;51.154;4.164;2023-03-09T04:01:52;34.83;;;22.00;;
76292;SDS011;67256;51.154;4.164;2023-03-09T04:04:17;35.30;;;21.77;;
76292;SDS011;67256;51.154;4.164;2023-03-09T04:06:43;37.22;;;23.30;;
76292;SDS011;67256;51.154;4.164;2023-03-09T04:09:09;35.55;;;21.85;;
76292;SDS011;67256;51.154;4.164;2023-03-09T04:11:35;38.15;;;23.10;;
76292;SDS011;67256;51.154;4.164;2023-03-09T04:14:01;39.95;;;22.55;;
76292;SDS011;67256;51.154;4.164;2023-03-09T04:16:27;38.63;;;22.58;;
76292;SDS011;67256;51.154;4.164;2023-03-09T04:18:53;36.70;;;22.25;;
76292;SDS011;67256;51.154;4.164;2023-03-09T04:21:18;35.17;;;21.42;;
76292;SDS011;67256;51.154;4.164;2023-03-09T04:23:44;38.25;;;22.05;;
76292;SDS011;67256;51.154;4.164;2023-03-09T04:26:13;34.20;;;21.83;;
76292;SDS011;67256;51.154;4.164;2023-03-09T04:28:39;34.60;;;20.38;;
76292;SDS011;67256;51.154;4.164;2023-03-09T04:31:04;33.22;;;20.73;;
76292;SDS011;67256;51.154;4.164;2023-03-09T04:33:30;32.85;;;21.13;;
76292;SDS011;67256;51.154;4.164;2023-03-09T04:35:55;33.17;;;20.40;;
76292;SDS011;67256;51.154;4.164;2023-03-09T04:38:21;33.13;;;19.95;;
76292;SDS011;67256;51.154;4.164;2023-03-09T04:40:47;38.15;;;22.13;;
76292;SDS011;67256;51.154;4.164;2023-03-09T04:43:12;32.80;;;20.60;;
76292;SDS011;67256;51.154;4.164;2023-03-09T04:45:38;37.80;;;21.83;;
76292;SDS011;67256;51.154;4.164;2023-03-09T04:48:04;37.83;;;23.10;;
76292;SDS011;67256;51.154;4.164;2023-03-09T04:50:30;42.53;;;25.08;;
76292;SDS011;67256;51.154;4.164;2023-03-09T04:52:56;36.05;;;22.85;;
76292;SDS011;67256;51.154;4.164;2023-03-09T04:55:22;42.15;;;24.98;;
76292;SDS011;67256;51.154;4.164;2023-03-09T04:57:48;39.45;;;23.35;;
76292;SDS011;67256;51.154;4.164;2023-03-09T05:00:14;35.05;;;22.83;;
76292;SDS011;67256;51.154;4.164;2023-03-09T05:02:41;34.53;;;21.55;;
76292;SDS011;67256;51.154;4.164;2023-03-09T05:05:07;31.92;;;21.27;;
76292;SDS011;67256;51.154;4.164;2023-03-09T05:07:34;31.60;;;20.13;;
76292;SDS011;67256;51.154;4.164;2023-03-09T05:10:01;34.75;;;21.17;;
76292;SDS011;67256;51.154;4.164;2023-03-09T05:12:27;33.95;;;20.63;;
76292;SDS011;67256;51.154;4.164;2023-03-09T05:14:56;32.60;;;20.63;;
76292;SDS011;67256;51.154;4.164;2023-03-09T05:17:23;31.23;;;20.27;;
76292;SDS011;67256;51.154;4.164;2023-03-09T05:19:49;33.17;;;20.33;;
76292;SDS011;67256;51.154;4.164;2023-03-09T05:22:15;31.88;;;19.90;;
76292;SDS011;67256;51.154;4.164;2023-03-09T05:24:42;31.35;;;20.98;;
76292;SDS011;67256;51.154;4.164;2023-03-09T05:27:07;28.33;;;18.80;;
76292;SDS011;67256;51.154;4.164;2023-03-09T05:29:33;30.55;;;19.33;;
76292;SDS011;67256;51.154;4.164;2023-03-09T05:31:59;31.42;;;19.85;;
76292;SDS011;67256;51.154;4.164;2023-03-09T05:34:25;36.75;;;21.00;;
76292;SDS011;67256;51.154;4.164;2023-03-09T05:36:51;29.38;;;20.38;;
76292;SDS011;67256;51.154;4.164;2023-03-09T05:39:17;29.83;;;20.10;;
76292;SDS011;67256;51.154;4.164;2023-03-09T05:41:42;34.47;;;20.90;;
76292;SDS011;67256;51.154;4.164;2023-03-09T05:44:08;32.22;;;20.77;;
76292;SDS011;67256;51.154;4.164;2023-03-09T05:46:34;30.85;;;20.23;;
76292;SDS011;67256;51.154;4.164;2023-03-09T05:49:00;32.15;;;20.73;;
76292;SDS011;67256;51.154;4.164;2023-03-09T05:51:25;34.13;;;20.80;;
76292;SDS011;67256;51.154;4.164;2023-03-09T05:53:51;31.35;;;20.63;;
76292;SDS011;67256;51.154;4.164;2023-03-09T05:56:17;32.53;;;20.40;;
76292;SDS011;67256;51.154;4.164;2023-03-09T05:58:43;30.98;;;19.67;;
76292;SDS011;67256;51.154;4.164;2023-03-09T06:01:16;29.38;;;18.27;;
76292;SDS011;67256;51.154;4.164;2023-03-09T06:03:46;32.10;;;21.17;;
76292;SDS011;67256;51.154;4.164;2023-03-09T06:06:14;28.15;;;17.80;;
76292;SDS011;67256;51.154;4.164;2023-03-09T06:08:40;32.90;;;19.83;;
76292;SDS011;67256;51.154;4.164;2023-03-09T06:11:06;30.75;;;19.38;;
76292;SDS011;67256;51.154;4.164;2023-03-09T06:13:32;29.67;;;18.10;;
76292;SDS011;67256;51.154;4.164;2023-03-09T06:15:58;31.58;;;20.00;;
76292;SDS011;67256;51.154;4.164;2023-03-09T06:18:27;28.98;;;19.40;;
76292;SDS011;67256;51.154;4.164;2023-03-09T06:20:53;31.00;;;19.60;;
76292;SDS011;67256;51.154;4.164;2023-03-09T06:23:18;28.15;;;19.42;;
76292;SDS011;67256;51.154;4.164;2023-03-09T06:25:44;31.63;;;20.73;;
76292;SDS011;67256;51.154;4.164;2023-03-09T06:28:10;35.00;;;20.95;;
76292;SDS011;67256;51.154;4.164;2023-03-09T06:30:37;32.97;;;20.33;;
76292;SDS011;67256;51.154;4.164;2023-03-09T06:33:05;31.65;;;20.40;;
76292;SDS011;67256;51.154;4.164;2023-03-09T06:35:31;31.05;;;20.15;;
76292;SDS011;67256;51.154;4.164;2023-03-09T06:37:57;37.30;;;22.65;;
76292;SDS011;67256;51.154;4.164;2023-03-09T06:40:26;28.53;;;18.83;;
76292;SDS011;67256;51.154;4.164;2023-03-09T06:42:52;31.55;;;19.65;;
76292;SDS011;67256;51.154;4.164;2023-03-09T06:45:18;32.67;;;19.80;;
76292;SDS011;67256;51.154;4.164;2023-03-09T06:47:46;30.27;;;19.13;;
76292;SDS011;67256;51.154;4.164;2023-03-09T06:50:12;31.02;;;19.70;;
76292;SDS011;67256;51.154;4.164;2023-03-09T06:52:38;35.05;;;21.02;;
76292;SDS011;67256;51.154;4.164;2023-03-09T06:55:04;31.40;;;20.58;;
76292;SDS011;67256;51.154;4.164;2023-03-09T06:57:31;33.53;;;20.98;;
76292;SDS011;67256;51.154;4.164;2023-03-09T06:59:57;33.80;;;20.42;;
76292;SDS011;67256;51.154;4.164;2023-03-09T07:02:22;35.35;;;22.05;;
76292;SDS011;67256;51.154;4.164;2023-03-09T07:04:48;35.40;;;21.63;;
76292;SDS011;67256;51.154;4.164;2023-03-09T07:07:14;32.65;;;20.58;;
76292;SDS011;67256;51.154;4.164;2023-03-09T07:09:40;30.88;;;20.75;;
76292;SDS011;67256;51.154;4.164;2023-03-09T07:12:06;34.25;;;21.13;;
76292;SDS011;67256;51.154;4.164;2023-03-09T07:14:32;34.88;;;21.13;;
76292;SDS011;67256;51.154;4.164;2023-03-09T07:16:58;31.38;;;19.02;;
76292;SDS011;67256;51.154;4.164;2023-03-09T07:19:23;38.38;;;21.88;;
76292;SDS011;67256;51.154;4.164;2023-03-09T07:21:49;38.28;;;21.35;;
76292;SDS011;67256;51.154;4.164;2023-03-09T07:24:15;37.60;;;22.63;;
76292;SDS011;67256;51.154;4.164;2023-03-09T07:26:41;35.63;;;21.48;;
76292;SDS011;67256;51.154;4.164;2023-03-09T07:29:07;36.20;;;21.63;;
76292;SDS011;67256;51.154;4.164;2023-03-09T07:31:33;32.83;;;20.15;;
76292;SDS011;67256;51.154;4.164;2023-03-09T07:33:59;39.83;;;21.15;;
76292;SDS011;67256;51.154;4.164;2023-03-09T07:36:25;37.72;;;22.17;;
76292;SDS011;67256;51.154;4.164;2023-03-09T07:38:51;37.97;;;22.77;;
76292;SDS011;67256;51.154;4.164;2023-03-09T07:41:17;36.95;;;22.50;;
76292;SDS011;67256;51.154;4.164;2023-03-09T07:43:43;35.75;;;22.42;;
76292;SDS011;67256;51.154;4.164;2023-03-09T07:46:10;40.63;;;22.42;;
76292;SDS011;67256;51.154;4.164;2023-03-09T07:48:37;43.70;;;25.00;;
76292;SDS011;67256;51.154;4.164;2023-03-09T07:51:03;36.30;;;23.85;;
76292;SDS011;67256;51.154;4.164;2023-03-09T07:53:31;41.90;;;23.88;;
76292;SDS011;67256;51.154;4.164;2023-03-09T07:56:00;46.50;;;25.85;;
76292;SDS011;67256;51.154;4.164;2023-03-09T07:58:28;49.85;;;25.75;;
76292;SDS011;67256;51.154;4.164;2023-03-09T08:00:57;50.47;;;27.02;;
76292;SDS011;67256;51.154;4.164;2023-03-09T08:03:23;52.35;;;28.60;;
76292;SDS011;67256;51.154;4.164;2023-03-09T08:05:50;48.78;;;26.85;;
76292;SDS011;67256;51.154;4.164;2023-03-09T08:10:47;50.15;;;27.60;;
76292;SDS011;67256;51.154;4.164;2023-03-09T08:13:17;51.83;;;28.58;;
76292;SDS011;67256;51.154;4.164;2023-03-09T08:15:44;53.28;;;29.77;;
76292;SDS011;67256;51.154;4.164;2023-03-09T08:18:11;59.45;;;30.92;;
76292;SDS011;67256;51.154;4.164;2023-03-09T08:20:37;58.45;;;31.70;;
76292;SDS011;67256;51.154;4.164;2023-03-09T08:23:03;62.13;;;32.03;;
76292;SDS011;67256;51.154;4.164;2023-03-09T08:25:29;56.00;;;30.70;;
76292;SDS011;67256;51.154;4.164;2023-03-09T08:27:55;49.42;;;29.33;;
76292;SDS011;67256;51.154;4.164;2023-03-09T08:30:20;52.17;;;29.52;;
76292;SDS011;67256;51.154;4.164;2023-03-09T08:32:47;55.53;;;31.65;;
76292;SDS011;67256;51.154;4.164;2023-03-09T08:35:15;52.38;;;31.02;;
76292;SDS011;67256;51.154;4.164;2023-03-09T08:37:41;55.50;;;31.55;;
76292;SDS011;67256;51.154;4.164;2023-03-09T08:40:07;52.40;;;31.15;;
76292;SDS011;67256;51.154;4.164;2023-03-09T08:42:34;54.25;;;33.33;;
76292;SDS011;67256;51.154;4.164;2023-03-09T08:45:00;51.20;;;32.88;;
76292;SDS011;67256;51.154;4.164;2023-03-09T08:47:26;50.65;;;30.67;;
76292;SDS011;67256;51.154;4.164;2023-03-09T08:49:52;52.53;;;30.30;;
76292;SDS011;67256;51.154;4.164;2023-03-09T08:52:17;52.92;;;32.58;;
76292;SDS011;67256;51.154;4.164;2023-03-09T08:54:43;49.55;;;31.55;;
76292;SDS011;67256;51.154;4.164;2023-03-09T08:57:11;47.40;;;30.30;;
76292;SDS011;67256;51.154;4.164;2023-03-09T08:59:37;53.63;;;31.23;;
76292;SDS011;67256;51.154;4.164;2023-03-09T09:02:03;47.42;;;29.92;;
76292;SDS011;67256;51.154;4.164;2023-03-09T09:04:29;43.88;;;28.20;;
76292;SDS011;67256;51.154;4.164;2023-03-09T09:06:55;44.10;;;27.40;;
76292;SDS011;67256;51.154;4.164;2023-03-09T09:09:21;40.85;;;25.20;;
76292;SDS011;67256;51.154;4.164;2023-03-09T09:11:47;41.28;;;25.80;;
76292;SDS011;67256;51.154;4.164;2023-03-09T09:14:13;43.75;;;26.52;;
76292;SDS011;67256;51.154;4.164;2023-03-09T09:16:40;39.65;;;25.00;;
76292;SDS011;67256;51.154;4.164;2023-03-09T09:19:06;44.53;;;26.85;;
76292;SDS011;67256;51.154;4.164;2023-03-09T09:21:32;43.03;;;26.08;;
76292;SDS011;67256;51.154;4.164;2023-03-09T09:23:58;51.83;;;27.95;;
76292;SDS011;67256;51.154;4.164;2023-03-09T09:26:24;49.70;;;29.17;;
76292;SDS011;67256;51.154;4.164;2023-03-09T09:28:49;52.10;;;28.27;;
76292;SDS011;67256;51.154;4.164;2023-03-09T09:31:19;49.33;;;27.73;;
76292;SDS011;67256;51.154;4.164;2023-03-09T09:33:45;49.65;;;28.63;;
76292;SDS011;67256;51.154;4.164;2023-03-09T09:36:12;46.50;;;28.45;;
76292;SDS011;67256;51.154;4.164;2023-03-09T09:38:39;51.15;;;28.63;;
76292;SDS011;67256;51.154;4.164;2023-03-09T09:43:59;49.60;;;29.02;;
76292;SDS011;67256;51.154;4.164;2023-03-09T09:46:29;48.05;;;28.38;;
76292;SDS011;67256;51.154;4.164;2023-03-09T09:48:56;49.60;;;28.80;;
76292;SDS011;67256;51.154;4.164;2023-03-09T09:57:23;46.85;;;26.30;;
76292;SDS011;67256;51.154;4.164;2023-03-09T10:05:22;41.42;;;24.00;;
76292;SDS011;67256;51.154;4.164;2023-03-09T10:07:55;41.75;;;25.15;;
76292;SDS011;67256;51.154;4.164;2023-03-09T10:10:25;38.40;;;24.02;;
76292;SDS011;67256;51.154;4.164;2023-03-09T10:12:54;40.30;;;24.48;;
76292;SDS011;67256;51.154;4.164;2023-03-09T10:15:28;43.47;;;25.42;;
76292;SDS011;67256;51.154;4.164;2023-03-09T10:18:04;48.45;;;26.75;;
76292;SDS011;67256;51.154;4.164;2023-03-09T10:20:37;42.35;;;25.05;;
76292;SDS011;67256;51.154;4.164;2023-03-09T10:23:27;41.08;;;25.08;;
76292;SDS011;67256;51.154;4.164;2023-03-09T10:26:43;37.90;;;23.02;;
76292;SDS011;67256;51.154;4.164;2023-03-09T10:29:05;41.72;;;24.02;;
76292;SDS011;67256;51.154;4.164;2023-03-09T10:31:57;44.38;;;26.10;;
76292;SDS011;67256;51.154;4.164;2023-03-09T10:34:29;39.75;;;24.10;;
76292;SDS011;67256;51.154;4.164;2023-03-09T10:37:09;43.13;;;26.42;;
76292;SDS011;67256;51.154;4.164;2023-03-09T10:39:43;44.25;;;25.85;;
76292;SDS011;67256;51.154;4.164;2023-03-09T10:44:42;44.17;;;26.05;;
76292;SDS011;67256;51.154;4.164;2023-03-09T10:50:53;49.65;;;27.98;;
76292;SDS011;67256;51.154;4.164;2023-03-09T10:55:48;53.90;;;28.77;;
76292;SDS011;67256;51.154;4.164;2023-03-09T10:58:20;48.95;;;27.35;;
76292;SDS011;67256;51.154;4.164;2023-03-09T11:00:52;62.75;;;30.90;;
76292;SDS011;67256;51.154;4.164;2023-03-09T11:03:36;51.40;;;28.67;;
76292;SDS011;67256;51.154;4.164;2023-03-09T11:08:41;49.33;;;27.73;;
76292;SDS011;67256;51.154;4.164;2023-03-09T11:11:17;49.05;;;28.25;;
76292;SDS011;67256;51.154;4.164;2023-03-09T11:13:45;51.25;;;28.73;;
76292;SDS011;67256;51.154;4.164;2023-03-09T11:16:22;52.95;;;28.92;;
76292;SDS011;67256;51.154;4.164;2023-03-09T11:19:03;53.28;;;30.33;;
76292;SDS011;67256;51.154;4.164;2023-03-09T11:21:29;43.88;;;27.30;;
76292;SDS011;67256;51.154;4.164;2023-03-09T11:23:55;46.38;;;25.80;;
76292;SDS011;67256;51.154;4.164;2023-03-09T11:31:56;40.08;;;23.38;;
76292;SDS011;67256;51.154;4.164;2023-03-09T11:37:17;38.30;;;23.17;;
76292;SDS011;67256;51.154;4.164;2023-03-09T11:42:48;34.80;;;22.55;;
76292;SDS011;67256;51.154;4.164;2023-03-09T11:45:24;36.47;;;21.30;;
76292;SDS011;67256;51.154;4.164;2023-03-09T11:47:57;36.38;;;21.90;;
76292;SDS011;67256;51.154;4.164;2023-03-09T11:50:40;38.45;;;21.77;;
76292;SDS011;67256;51.154;4.164;2023-03-09T11:55:48;37.55;;;22.50;;
76292;SDS011;67256;51.154;4.164;2023-03-09T11:58:22;32.25;;;18.98;;
76292;SDS011;67256;51.154;4.164;2023-03-09T12:00:55;32.72;;;20.48;;
76292;SDS011;67256;51.154;4.164;2023-03-09T12:03:31;32.65;;;19.90;;
76292;SDS011;67256;51.154;4.164;2023-03-09T12:06:22;34.08;;;20.00;;
76292;SDS011;67256;51.154;4.164;2023-03-09T12:08:55;35.90;;;19.75;;
76292;SDS011;67256;51.154;4.164;2023-03-09T12:14:07;36.28;;;21.70;;
76292;SDS011;67256;51.154;4.164;2023-03-09T12:16:48;34.47;;;21.02;;
76292;SDS011;67256;51.154;4.164;2023-03-09T12:19:22;37.42;;;22.73;;
76292;SDS011;67256;51.154;4.164;2023-03-09T12:21:59;45.72;;;26.17;;
76292;SDS011;67256;51.154;4.164;2023-03-09T12:27:20;41.05;;;25.10;;
76292;SDS011;67256;51.154;4.164;2023-03-09T12:32:41;35.97;;;22.73;;
76292;SDS011;67256;51.154;4.164;2023-03-09T12:42:51;38.25;;;22.17;;
76292;SDS011;67256;51.154;4.164;2023-03-09T12:45:27;40.22;;;24.92;;
76292;SDS011;67256;51.154;4.164;2023-03-09T13:03:22;28.38;;;18.38;;
76292;SDS011;67256;51.154;4.164;2023-03-09T13:09:22;30.35;;;18.40;;
76292;SDS011;67256;51.154;4.164;2023-03-09T13:11:42;29.55;;;18.63;;
76292;SDS011;67256;51.154;4.164;2023-03-09T13:16:55;37.58;;;23.35;;
76292;SDS011;67256;51.154;4.164;2023-03-09T13:27:01;31.35;;;20.77;;
76292;SDS011;67256;51.154;4.164;2023-03-09T13:30:17;30.33;;;20.50;;
76292;SDS011;67256;51.154;4.164;2023-03-09T13:32:46;35.97;;;21.52;;
76292;SDS011;67256;51.154;4.164;2023-03-09T13:35:21;27.13;;;18.40;;
76292;SDS011;67256;51.154;4.164;2023-03-09T13:37:52;30.05;;;18.05;;
76292;SDS011;67256;51.154;4.164;2023-03-09T13:42:53;31.65;;;19.40;;
76292;SDS011;67256;51.154;4.164;2023-03-09T13:45:22;33.53;;;19.85;;
76292;SDS011;67256;51.154;4.164;2023-03-09T13:47:54;32.90;;;19.95;;
76292;SDS011;67256;51.154;4.164;2023-03-09T13:50:23;34.83;;;20.67;;
76292;SDS011;67256;51.154;4.164;2023-03-09T13:55:29;29.23;;;18.70;;
76292;SDS011;67256;51.154;4.164;2023-03-09T14:03:17;33.75;;;19.75;;
76292;SDS011;67256;51.154;4.164;2023-03-09T14:05:52;34.53;;;20.45;;
76292;SDS011;67256;51.154;4.164;2023-03-09T14:08:26;31.85;;;19.80;;
76292;SDS011;67256;51.154;4.164;2023-03-09T14:10:53;34.25;;;19.63;;
76292;SDS011;67256;51.154;4.164;2023-03-09T14:13:20;30.73;;;18.85;;
76292;SDS011;67256;51.154;4.164;2023-03-09T14:16:33;33.03;;;19.20;;
76292;SDS011;67256;51.154;4.164;2023-03-09T14:18:49;30.42;;;19.70;;
76292;SDS011;67256;51.154;4.164;2023-03-09T14:21:21;31.30;;;20.67;;
76292;SDS011;67256;51.154;4.164;2023-03-09T14:23:55;36.55;;;21.08;;
76292;SDS011;67256;51.154;4.164;2023-03-09T14:26:35;39.67;;;20.70;;
76292;SDS011;67256;51.154;4.164;2023-03-09T14:29:44;36.92;;;19.88;;
76292;SDS011;67256;51.154;4.164;2023-03-09T14:32:15;36.25;;;19.77;;
76292;SDS011;67256;51.154;4.164;2023-03-09T14:34:42;39.92;;;21.83;;
76292;SDS011;67256;51.154;4.164;2023-03-09T14:37:13;41.17;;;20.98;;
76292;SDS011;67256;51.154;4.164;2023-03-09T14:39:44;32.55;;;17.63;;
76292;SDS011;67256;51.154;4.164;2023-03-09T14:44:58;36.67;;;17.73;;
76292;SDS011;67256;51.154;4.164;2023-03-09T14:47:51;35.10;;;17.40;;
76292;SDS011;67256;51.154;4.164;2023-03-09T14:50:21;48.65;;;21.48;;
76292;SDS011;67256;51.154;4.164;2023-03-09T14:52:48;45.40;;;19.75;;
76292;SDS011;67256;51.154;4.164;2023-03-09T14:55:15;35.95;;;17.52;;
76292;SDS011;67256;51.154;4.164;2023-03-09T14:57:43;35.47;;;17.20;;
76292;SDS011;67256;51.154;4.164;2023-03-09T15:00:13;28.58;;;14.60;;
76292;SDS011;67256;51.154;4.164;2023-03-09T15:02:40;33.42;;;15.57;;
76292;SDS011;67256;51.154;4.164;2023-03-09T15:05:11;34.75;;;14.93;;
76292;SDS011;67256;51.154;4.164;2023-03-09T15:07:38;40.50;;;14.70;;
76292;SDS011;67256;51.154;4.164;2023-03-09T15:10:04;26.88;;;12.13;;
76292;SDS011;67256;51.154;4.164;2023-03-09T15:12:31;39.72;;;11.55;;
76292;SDS011;67256;51.154;4.164;2023-03-09T15:14:56;29.85;;;12.63;;
76292;SDS011;67256;51.154;4.164;2023-03-09T15:17:22;38.97;;;9.93;;
76292;SDS011;67256;51.154;4.164;2023-03-09T15:19:48;28.23;;;7.22;;
76292;SDS011;67256;51.154;4.164;2023-03-09T15:22:16;25.25;;;6.57;;
76292;SDS011;67256;51.154;4.164;2023-03-09T15:24:44;24.63;;;5.22;;
76292;SDS011;67256;51.154;4.164;2023-03-09T15:27:10;25.38;;;5.22;;
76292;SDS011;67256;51.154;4.164;2023-03-09T15:29:36;24.55;;;5.65;;
76292;SDS011;67256;51.154;4.164;2023-03-09T15:32:03;28.90;;;4.80;;
76292;SDS011;67256;51.154;4.164;2023-03-09T15:34:33;24.10;;;4.43;;
76292;SDS011;67256;51.154;4.164;2023-03-09T15:37:00;32.95;;;5.78;;
76292;SDS011;67256;51.154;4.164;2023-03-09T15:39:26;25.38;;;5.28;;
76292;SDS011;67256;51.154;4.164;2023-03-09T15:41:52;27.40;;;4.93;;
76292;SDS011;67256;51.154;4.164;2023-03-09T15:44:17;20.35;;;5.43;;
76292;SDS011;67256;51.154;4.164;2023-03-09T15:46:43;31.58;;;5.15;;
76292;SDS011;67256;51.154;4.164;2023-03-09T15:49:09;29.70;;;6.22;;
76292;SDS011;67256;51.154;4.164;2023-03-09T15:51:35;32.78;;;6.47;;
76292;SDS011;67256;51.154;4.164;2023-03-09T15:54:01;25.60;;;5.25;;
76292;SDS011;67256;51.154;4.164;2023-03-09T15:56:27;40.83;;;8.05;;
76292;SDS011;67256;51.154;4.164;2023-03-09T15:58:53;28.95;;;5.20;;
76292;SDS011;67256;51.154;4.164;2023-03-09T16:01:19;30.42;;;7.13;;
76292;SDS011;67256;51.154;4.164;2023-03-09T16:03:46;33.85;;;6.28;;
76292;SDS011;67256;51.154;4.164;2023-03-09T16:06:16;34.38;;;6.15;;
76292;SDS011;67256;51.154;4.164;2023-03-09T16:08:43;30.20;;;4.90;;
76292;SDS011;67256;51.154;4.164;2023-03-09T16:11:10;39.50;;;6.50;;
76292;SDS011;67256;51.154;4.164;2023-03-09T16:13:36;35.65;;;6.22;;
76292;SDS011;67256;51.154;4.164;2023-03-09T16:16:01;38.85;;;6.57;;
76292;SDS011;67256;51.154;4.164;2023-03-09T16:18:27;40.03;;;6.78;;
76292;SDS011;67256;51.154;4.164;2023-03-09T16:20:53;39.58;;;6.55;;
76292;SDS011;67256;51.154;4.164;2023-03-09T16:23:19;35.35;;;7.20;;
76292;SDS011;67256;51.154;4.164;2023-03-09T16:25:51;42.10;;;6.25;;